sensor_id;sensor_type;location;lat;lon;timestamp;pressure;altitude;pressure_sealevel;temperature;humidity
41334;BME280;27078;46.428;6.256;2023-03-16T00:02:15;96692.03;;;1.50;100.00
41334;BME280;27078;46.428;6.256;2023-03-16T00:04:40;96694.31;;;1.39;100.00
41334;BME280;27078;46.428;6.256;2023-03-16T00:07:08;96700.75;;;1.32;100.00
41334;BME280;27078;46.428;6.256;2023-03-16T00:09:34;96699.78;;;1.15;100.00
41334;BME280;27078;46.428;6.256;2023-03-16T00:12:01;96713.63;;;1.16;100.00
41334;BME280;27078;46.428;6.256;2023-03-16T00:14:28;96709.56;;;1.10;100.00
41334;BME280;27078;46.428;6.256;2023-03-16T00:16:53;96711.59;;;1.04;100.00
41334;BME280;27078;46.428;6.256;2023-03-16T00:19:18;96718.16;;;0.93;100.00
41334;BME280;27078;46.428;6.256;2023-03-16T00:21:47;96706.88;;;0.93;100.00
41334;BME280;27078;46.428;6.256;2023-03-16T00:24:12;96706.59;;;0.80;100.00
41334;BME280;27078;46.428;6.256;2023-03-16T00:26:42;96710.13;;;0.79;100.00
41334;BME280;27078;46.428;6.256;2023-03-16T00:29:07;96705.28;;;0.90;100.00
41334;BME280;27078;46.428;6.256;2023-03-16T00:31:32;96707.44;;;0.99;100.00
41334;BME280;27078;46.428;6.256;2023-03-16T00:33:58;96706.38;;;1.04;100.00
41334;BME280;27078;46.428;6.256;2023-03-16T00:36:24;96698.72;;;1.00;100.00
41334;BME280;27078;46.428;6.256;2023-03-16T00:38:50;96705.34;;;0.89;100.00
41334;BME280;27078;46.428;6.256;2023-03-16T00:41:15;96703.22;;;0.97;100.00
41334;BME280;27078;46.428;6.256;2023-03-16T00:43:42;96699.72;;;0.98;100.00
41334;BME280;27078;46.428;6.256;2023-03-16T00:46:14;96708.97;;;1.04;100.00
41334;BME280;27078;46.428;6.256;2023-03-16T00:48:42;96717.84;;;0.99;100.00
41334;BME280;27078;46.428;6.256;2023-03-16T00:51:13;96706.38;;;1.04;100.00
41334;BME280;27078;46.428;6.256;2023-03-16T00:53:41;96705.69;;;1.19;100.00
41334;BME280;27078;46.428;6.256;2023-03-16T00:56:08;96711.81;;;0.99;100.00
41334;BME280;27078;46.428;6.256;2023-03-16T00:58:36;96703.44;;;0.92;100.00
41334;BME280;27078;46.428;6.256;2023-03-16T01:01:02;96704.50;;;0.88;100.00
41334;BME280;27078;46.428;6.256;2023-03-16T01:03:28;96706.31;;;0.86;100.00
41334;BME280;27078;46.428;6.256;2023-03-16T01:05:54;96707.94;;;0.89;100.00
41334;BME280;27078;46.428;6.256;2023-03-16T01:08:24;96702.81;;;0.87;100.00
41334;BME280;27078;46.428;6.256;2023-03-16T01:10:52;96701.06;;;0.88;100.00
41334;BME280;27078;46.428;6.256;2023-03-16T01:13:17;96701.78;;;0.91;100.00
41334;BME280;27078;46.428;6.256;2023-03-16T01:15:43;96699.19;;;0.91;100.00
41334;BME280;27078;46.428;6.256;2023-03-16T01:18:10;96695.84;;;0.88;100.00
41334;BME280;27078;46.428;6.256;2023-03-16T01:20:37;96694.25;;;0.85;100.00
41334;BME280;27078;46.428;6.256;2023-03-16T01:23:03;96698.03;;;0.97;100.00
41334;BME280;27078;46.428;6.256;2023-03-16T01:25:28;96682.84;;;0.88;100.00
41334;BME280;27078;46.428;6.256;2023-03-16T01:27:54;96690.16;;;0.79;100.00
41334;BME280;27078;46.428;6.256;2023-03-16T01:30:19;96680.03;;;0.92;100.00
41334;BME280;27078;46.428;6.256;2023-03-16T01:32:45;96679.47;;;0.86;100.00
41334;BME280;27078;46.428;6.256;2023-03-16T01:35:10;96674.56;;;0.79;100.00
41334;BME280;27078;46.428;6.256;2023-03-16T01:37:36;96675.41;;;0.80;100.00
41334;BME280;27078;46.428;6.256;2023-03-16T01:40:02;96675.88;;;0.88;100.00
41334;BME280;27078;46.428;6.256;2023-03-16T01:42:30;96671.34;;;0.74;100.00
41334;BME280;27078;46.428;6.256;2023-03-16T01:44:58;96672.50;;;0.86;100.00
41334;BME280;27078;46.428;6.256;2023-03-16T01:47:30;96668.16;;;0.87;100.00
41334;BME280;27078;46.428;6.256;2023-03-16T01:49:55;96665.66;;;0.85;100.00
41334;BME280;27078;46.428;6.256;2023-03-16T01:52:24;96666.53;;;0.84;100.00
41334;BME280;27078;46.428;6.256;2023-03-16T01:55:17;96659.03;;;0.78;100.00
41334;BME280;27078;46.428;6.256;2023-03-16T01:57:45;96661.28;;;0.86;100.00
41334;BME280;27078;46.428;6.256;2023-03-16T02:00:13;96662.88;;;0.88;100.00
41334;BME280;27078;46.428;6.256;2023-03-16T02:02:51;96647.06;;;0.74;100.00
41334;BME280;27078;46.428;6.256;2023-03-16T02:05:20;96637.88;;;0.86;100.00
41334;BME280;27078;46.428;6.256;2023-03-16T02:07:48;96629.47;;;0.80;100.00
41334;BME280;27078;46.428;6.256;2023-03-16T02:10:17;96640.03;;;0.76;100.00
41334;BME280;27078;46.428;6.256;2023-03-16T02:12:43;96641.19;;;0.70;100.00
41334;BME280;27078;46.428;6.256;2023-03-16T02:15:09;96634.66;;;0.62;100.00
41334;BME280;27078;46.428;6.256;2023-03-16T02:17:35;96636.50;;;0.59;100.00
41334;BME280;27078;46.428;6.256;2023-03-16T02:22:49;96639.66;;;0.47;100.00
41334;BME280;27078;46.428;6.256;2023-03-16T02:25:21;96628.31;;;0.48;100.00
41334;BME280;27078;46.428;6.256;2023-03-16T02:28:04;96639.66;;;0.47;100.00
41334;BME280;27078;46.428;6.256;2023-03-16T02:30:32;96636.75;;;0.34;100.00
41334;BME280;27078;46.428;6.256;2023-03-16T02:32:58;96638.66;;;0.31;100.00
41334;BME280;27078;46.428;6.256;2023-03-16T02:35:24;96637.31;;;0.41;100.00
41334;BME280;27078;46.428;6.256;2023-03-16T02:37:49;96636.13;;;0.48;100.00
41334;BME280;27078;46.428;6.256;2023-03-16T02:40:26;96625.50;;;0.53;100.00
41334;BME280;27078;46.428;6.256;2023-03-16T02:42:58;96640.03;;;0.76;100.00
41334;BME280;27078;46.428;6.256;2023-03-16T02:45:30;96633.94;;;0.77;100.00
41334;BME280;27078;46.428;6.256;2023-03-16T02:47:59;96632.69;;;0.67;100.00
41334;BME280;27078;46.428;6.256;2023-03-16T02:50:28;96631.13;;;0.63;100.00
41334;BME280;27078;46.428;6.256;2023-03-16T02:52:53;96636.84;;;0.52;100.00
41334;BME280;27078;46.428;6.256;2023-03-16T02:55:18;96634.28;;;0.50;100.00
41334;BME280;27078;46.428;6.256;2023-03-16T02:57:45;96631.69;;;0.50;100.00
41334;BME280;27078;46.428;6.256;2023-03-16T03:00:11;96622.72;;;0.57;100.00
41334;BME280;27078;46.428;6.256;2023-03-16T03:02:41;96634.03;;;0.56;100.00
41334;BME280;27078;46.428;6.256;2023-03-16T03:05:07;96636.91;;;0.50;100.00
41334;BME280;27078;46.428;6.256;2023-03-16T03:07:32;96633.25;;;0.54;100.00
41334;BME280;27078;46.428;6.256;2023-03-16T03:09:57;96639.28;;;0.55;100.00
41334;BME280;27078;46.428;6.256;2023-03-16T03:12:23;96638.09;;;0.43;100.00
41334;BME280;27078;46.428;6.256;2023-03-16T03:14:48;96644.97;;;0.44;100.00
41334;BME280;27078;46.428;6.256;2023-03-16T03:17:14;96644.06;;;0.45;100.00
41334;BME280;27078;46.428;6.256;2023-03-16T03:19:39;96649.13;;;0.48;100.00
41334;BME280;27078;46.428;6.256;2023-03-16T03:22:05;96645.63;;;0.49;100.00
41334;BME280;27078;46.428;6.256;2023-03-16T03:24:32;96639.94;;;0.41;100.00
41334;BME280;27078;46.428;6.256;2023-03-16T03:26:58;96634.06;;;0.36;100.00
41334;BME280;27078;46.428;6.256;2023-03-16T03:29:30;96645.59;;;0.30;100.00
41334;BME280;27078;46.428;6.256;2023-03-16T03:32:05;96642.34;;;0.25;100.00
41334;BME280;27078;46.428;6.256;2023-03-16T03:34:31;96649.03;;;0.31;100.00
41334;BME280;27078;46.428;6.256;2023-03-16T03:36:56;96648.69;;;0.19;100.00
41334;BME280;27078;46.428;6.256;2023-03-16T03:39:22;96646.28;;;0.15;100.00
41334;BME280;27078;46.428;6.256;2023-03-16T03:41:48;96647.75;;;0.20;100.00
41334;BME280;27078;46.428;6.256;2023-03-16T03:44:13;96648.97;;;0.32;100.00
41334;BME280;27078;46.428;6.256;2023-03-16T03:46:38;96642.28;;;0.27;100.00
41334;BME280;27078;46.428;6.256;2023-03-16T03:49:04;96641.56;;;0.23;100.00
41334;BME280;27078;46.428;6.256;2023-03-16T03:51:32;96640.19;;;0.35;100.00
41334;BME280;27078;46.428;6.256;2023-03-16T03:53:58;96649.38;;;0.42;100.00
41334;BME280;27078;46.428;6.256;2023-03-16T03:56:24;96645.69;;;0.48;100.00
41334;BME280;27078;46.428;6.256;2023-03-16T03:58:50;96647.06;;;0.36;100.00
41334;BME280;27078;46.428;6.256;2023-03-16T04:01:16;96655.28;;;0.27;100.00
41334;BME280;27078;46.428;6.256;2023-03-16T04:03:42;96654.72;;;0.20;100.00
41334;BME280;27078;46.428;6.256;2023-03-16T04:06:07;96641.78;;;0.18;100.00
41334;BME280;27078;46.428;6.256;2023-03-16T04:08:34;96639.19;;;0.18;100.00
41334;BME280;27078;46.428;6.256;2023-03-16T04:10:59;96642.63;;;0.19;100.00
41334;BME280;27078;46.428;6.256;2023-03-16T04:13:25;96636.84;;;0.12;100.00
41334;BME280;27078;46.428;6.256;2023-03-16T04:16:01;96643.09;;;0.08;100.00
41334;BME280;27078;46.428;6.256;2023-03-16T04:18:27;96646.28;;;0.15;100.00
41334;BME280;27078;46.428;6.256;2023-03-16T04:20:53;96660.31;;;0.11;100.00
41334;BME280;27078;46.428;6.256;2023-03-16T04:23:19;96654.53;;;0.04;100.00
41334;BME280;27078;46.428;6.256;2023-03-16T04:25:44;96656.75;;;-0.07;100.00
41334;BME280;27078;46.428;6.256;2023-03-16T04:28:10;96659.09;;;-0.22;100.00
41334;BME280;27078;46.428;6.256;2023-03-16T04:30:36;96663.59;;;-0.25;100.00
41334;BME280;27078;46.428;6.256;2023-03-16T04:33:01;96655.19;;;-0.32;100.00
41334;BME280;27078;46.428;6.256;2023-03-16T04:35:27;96649.81;;;-0.07;100.00
41334;BME280;27078;46.428;6.256;2023-03-16T04:37:52;96643.75;;;0.13;100.00
41334;BME280;27078;46.428;6.256;2023-03-16T04:40:18;96638.69;;;0.10;100.00
41334;BME280;27078;46.428;6.256;2023-03-16T04:42:44;96639.09;;;0.01;100.00
41334;BME280;27078;46.428;6.256;2023-03-16T04:45:11;96643.66;;;-0.04;100.00
41334;BME280;27078;46.428;6.256;2023-03-16T04:47:37;96655.09;;;-0.08;100.00
41334;BME280;27078;46.428;6.256;2023-03-16T04:50:03;96639.09;;;0.01;100.00
41334;BME280;27078;46.428;6.256;2023-03-16T04:52:29;96638.38;;;-0.03;100.00
41334;BME280;27078;46.428;6.256;2023-03-16T04:54:55;96651.00;;;-0.14;100.00
41334;BME280;27078;46.428;6.256;2023-03-16T04:57:20;96658.97;;;-0.18;100.00
41334;BME280;27078;46.428;6.256;2023-03-16T04:59:46;96653.13;;;-0.24;100.00
41334;BME280;27078;46.428;6.256;2023-03-16T05:02:12;96639.25;;;-0.23;100.00
41334;BME280;27078;46.428;6.256;2023-03-16T05:04:38;96640.41;;;-0.30;100.00
41334;BME280;27078;46.428;6.256;2023-03-16T05:07:04;96639.38;;;-0.26;100.00
41334;BME280;27078;46.428;6.256;2023-03-16T05:09:29;96632.50;;;-0.06;100.00
41334;BME280;27078;46.428;6.256;2023-03-16T05:11:54;96636.56;;;-0.01;100.00
41334;BME280;27078;46.428;6.256;2023-03-16T05:14:19;96640.06;;;-0.02;100.00
41334;BME280;27078;46.428;6.256;2023-03-16T05:16:45;96641.97;;;-0.05;100.00
41334;BME280;27078;46.428;6.256;2023-03-16T05:19:10;96637.81;;;-0.09;100.00
41334;BME280;27078;46.428;6.256;2023-03-16T05:21:36;96631.81;;;-0.11;100.00
41334;BME280;27078;46.428;6.256;2023-03-16T05:24:06;96630.53;;;-0.01;100.00
41334;BME280;27078;46.428;6.256;2023-03-16T05:26:31;96644.53;;;0.15;100.00
41334;BME280;27078;46.428;6.256;2023-03-16T05:28:58;96643.59;;;0.16;100.00
41334;BME280;27078;46.428;6.256;2023-03-16T05:31:23;96642.31;;;0.06;100.00
41334;BME280;27078;46.428;6.256;2023-03-16T05:33:52;96646.25;;;-0.04;100.00
41334;BME280;27078;46.428;6.256;2023-03-16T05:36:18;96647.81;;;0.00;100.00
41334;BME280;27078;46.428;6.256;2023-03-16T05:38:43;96646.88;;;0.01;100.00
41334;BME280;27078;46.428;6.256;2023-03-16T05:41:09;96640.66;;;0.05;100.00
41334;BME280;27078;46.428;6.256;2023-03-16T05:43:35;96638.72;;;0.29;100.00
41334;BME280;27078;46.428;6.256;2023-03-16T05:46:00;96634.94;;;0.36;100.00
41334;BME280;27078;46.428;6.256;2023-03-16T05:48:25;96639.78;;;0.44;100.00
41334;BME280;27078;46.428;6.256;2023-03-16T05:50:52;96652.19;;;0.18;100.00
41334;BME280;27078;46.428;6.256;2023-03-16T05:53:18;96655.84;;;0.33;100.00
41334;BME280;27078;46.428;6.256;2023-03-16T05:55:43;96647.22;;;0.33;100.00
41334;BME280;27078;46.428;6.256;2023-03-16T05:58:09;96637.75;;;0.32;100.00
41334;BME280;27078;46.428;6.256;2023-03-16T06:00:34;96648.50;;;0.43;100.00
41334;BME280;27078;46.428;6.256;2023-03-16T06:03:00;96648.56;;;0.42;100.00
41334;BME280;27078;46.428;6.256;2023-03-16T06:05:25;96653.63;;;0.45;100.00
41334;BME280;27078;46.428;6.256;2023-03-16T06:07:53;96649.28;;;0.45;100.00
41334;BME280;27078;46.428;6.256;2023-03-16T06:10:19;96657.97;;;0.44;100.00
41334;BME280;27078;46.428;6.256;2023-03-16T06:12:44;96664.22;;;0.40;100.00
41334;BME280;27078;46.428;6.256;2023-03-16T06:15:10;96657.06;;;0.45;100.00
41334;BME280;27078;46.428;6.256;2023-03-16T06:17:36;96650.38;;;0.58;100.00
41334;BME280;27078;46.428;6.256;2023-03-16T06:20:04;96651.19;;;0.97;100.00
41334;BME280;27078;46.428;6.256;2023-03-16T06:22:34;96654.50;;;1.00;100.00
41334;BME280;27078;46.428;6.256;2023-03-16T06:25:00;96656.19;;;1.01;100.00
41334;BME280;27078;46.428;6.256;2023-03-16T06:27:32;96653.75;;;0.98;100.00
41334;BME280;27078;46.428;6.256;2023-03-16T06:29:57;96656.81;;;1.07;100.00
41334;BME280;27078;46.428;6.256;2023-03-16T06:32:22;96655.59;;;1.14;100.00
41334;BME280;27078;46.428;6.256;2023-03-16T06:34:48;96643.19;;;1.38;100.00
41334;BME280;27078;46.428;6.256;2023-03-16T06:37:13;96650.22;;;1.53;100.00
41334;BME280;27078;46.428;6.256;2023-03-16T06:39:39;96646.38;;;1.60;100.00
41334;BME280;27078;46.428;6.256;2023-03-16T06:42:04;96644.97;;;1.55;100.00
41334;BME280;27078;46.428;6.256;2023-03-16T06:44:30;96649.22;;;1.56;100.00
41334;BME280;27078;46.428;6.256;2023-03-16T06:46:56;96645.72;;;1.57;100.00
41334;BME280;27078;46.428;6.256;2023-03-16T06:49:21;96638.69;;;1.59;100.00
41334;BME280;27078;46.428;6.256;2023-03-16T06:51:46;96637.97;;;1.55;100.00
41334;BME280;27078;46.428;6.256;2023-03-16T06:54:12;96640.66;;;1.54;100.00
41334;BME280;27078;46.428;6.256;2023-03-16T06:56:37;96646.16;;;1.65;100.00
41334;BME280;27078;46.428;6.256;2023-03-16T06:59:03;96641.41;;;1.73;100.00
41334;BME280;27078;46.428;6.256;2023-03-16T07:01:28;96637.59;;;1.80;100.00
41334;BME280;27078;46.428;6.256;2023-03-16T07:03:54;96638.94;;;1.88;100.00
41334;BME280;27078;46.428;6.256;2023-03-16T07:06:19;96641.19;;;1.95;100.00
41334;BME280;27078;46.428;6.256;2023-03-16T07:08:45;96640.06;;;2.17;100.00
41334;BME280;27078;46.428;6.256;2023-03-16T07:11:11;96645.16;;;2.36;100.00
41334;BME280;27078;46.428;6.256;2023-03-16T07:13:37;96651.06;;;2.55;100.00
41334;BME280;27078;46.428;6.256;2023-03-16T07:16:03;96649.25;;;2.73;100.00
41334;BME280;27078;46.428;6.256;2023-03-16T07:18:29;96641.75;;;2.99;100.00
41334;BME280;27078;46.428;6.256;2023-03-16T07:20:54;96653.59;;;3.20;100.00
41334;BME280;27078;46.428;6.256;2023-03-16T07:23:20;96648.75;;;3.44;100.00
41334;BME280;27078;46.428;6.256;2023-03-16T07:25:45;96641.53;;;3.64;100.00
41334;BME280;27078;46.428;6.256;2023-03-16T07:28:11;96640.13;;;3.88;100.00
41334;BME280;27078;46.428;6.256;2023-03-16T07:30:37;96635.66;;;4.05;100.00
41334;BME280;27078;46.428;6.256;2023-03-16T07:33:02;96629.97;;;4.13;100.00
41334;BME280;27078;46.428;6.256;2023-03-16T07:35:29;96628.19;;;4.27;100.00
41334;BME280;27078;46.428;6.256;2023-03-16T07:37:54;96622.44;;;4.51;100.00
41334;BME280;27078;46.428;6.256;2023-03-16T07:40:20;96625.75;;;4.82;99.63
41334;BME280;27078;46.428;6.256;2023-03-16T07:42:45;96630.91;;;5.10;93.83
41334;BME280;27078;46.428;6.256;2023-03-16T07:45:11;96623.63;;;5.28;92.17
41334;BME280;27078;46.428;6.256;2023-03-16T07:47:37;96616.97;;;5.37;86.77
41334;BME280;27078;46.428;6.256;2023-03-16T07:50:03;96622.69;;;5.57;85.50
41334;BME280;27078;46.428;6.256;2023-03-16T07:52:29;96616.44;;;5.72;82.66
41334;BME280;27078;46.428;6.256;2023-03-16T07:54:54;96622.34;;;5.88;83.72
41334;BME280;27078;46.428;6.256;2023-03-16T07:57:19;96611.03;;;6.01;82.84
41334;BME280;27078;46.428;6.256;2023-03-16T07:59:45;96616.41;;;6.25;82.83
41334;BME280;27078;46.428;6.256;2023-03-16T08:02:12;96617.97;;;6.40;77.52
41334;BME280;27078;46.428;6.256;2023-03-16T08:04:38;96619.91;;;6.62;77.13
41334;BME280;27078;46.428;6.256;2023-03-16T08:07:07;96610.88;;;6.66;75.81
41334;BME280;27078;46.428;6.256;2023-03-16T08:09:32;96608.59;;;6.62;72.01
41334;BME280;27078;46.428;6.256;2023-03-16T08:12:03;96619.38;;;6.70;73.02
41334;BME280;27078;46.428;6.256;2023-03-16T08:14:30;96623.97;;;6.79;77.53
41334;BME280;27078;46.428;6.256;2023-03-16T08:16:58;96623.34;;;6.88;76.52
41334;BME280;27078;46.428;6.256;2023-03-16T08:19:23;96619.03;;;6.87;70.45
41334;BME280;27078;46.428;6.256;2023-03-16T08:21:49;96622.72;;;6.85;73.15
41334;BME280;27078;46.428;6.256;2023-03-16T08:24:15;96626.66;;;7.03;74.70
41334;BME280;27078;46.428;6.256;2023-03-16T08:26:40;96622.09;;;7.18;75.83
41334;BME280;27078;46.428;6.256;2023-03-16T08:29:05;96619.91;;;7.12;73.92
41334;BME280;27078;46.428;6.256;2023-03-16T08:31:31;96621.16;;;7.43;75.66
41334;BME280;27078;46.428;6.256;2023-03-16T08:33:59;96624.28;;;7.60;73.25
41334;BME280;27078;46.428;6.256;2023-03-16T08:36:26;96621.22;;;7.66;75.72
41334;BME280;27078;46.428;6.256;2023-03-16T08:38:53;96624.84;;;7.76;74.03
41334;BME280;27078;46.428;6.256;2023-03-16T08:41:19;96612.22;;;7.81;73.82
41334;BME280;27078;46.428;6.256;2023-03-16T08:43:45;96619.22;;;7.69;72.26
41334;BME280;27078;46.428;6.256;2023-03-16T08:46:11;96612.28;;;7.68;73.31
41334;BME280;27078;46.428;6.256;2023-03-16T08:48:40;96616.56;;;7.58;72.07
41334;BME280;27078;46.428;6.256;2023-03-16T08:51:08;96622.81;;;7.44;70.18
41334;BME280;27078;46.428;6.256;2023-03-16T08:53:34;96623.06;;;7.41;72.64
41334;BME280;27078;46.428;6.256;2023-03-16T08:56:08;96614.31;;;7.41;74.51
41334;BME280;27078;46.428;6.256;2023-03-16T08:58:35;96615.66;;;7.46;73.79
41334;BME280;27078;46.428;6.256;2023-03-16T09:01:01;96614.97;;;7.55;74.53
41334;BME280;27078;46.428;6.256;2023-03-16T09:03:27;96605.69;;;7.63;72.16
41334;BME280;27078;46.428;6.256;2023-03-16T09:05:53;96612.22;;;7.81;72.58
41334;BME280;27078;46.428;6.256;2023-03-16T09:08:24;96601.97;;;8.01;69.36
41334;BME280;27078;46.428;6.256;2023-03-16T09:10:49;96609.13;;;7.99;69.25
41334;BME280;27078;46.428;6.256;2023-03-16T09:13:15;96607.69;;;7.94;68.44
41334;BME280;27078;46.428;6.256;2023-03-16T09:15:40;96607.97;;;8.14;70.71
41334;BME280;27078;46.428;6.256;2023-03-16T09:18:06;96604.88;;;8.31;69.20
41334;BME280;27078;46.428;6.256;2023-03-16T09:20:31;96606.09;;;8.39;67.61
41334;BME280;27078;46.428;6.256;2023-03-16T09:22:57;96603.94;;;8.44;68.31
41334;BME280;27078;46.428;6.256;2023-03-16T09:25:23;96599.66;;;8.43;65.99
41334;BME280;27078;46.428;6.256;2023-03-16T09:27:50;96606.56;;;8.55;66.05
41334;BME280;27078;46.428;6.256;2023-03-16T09:30:16;96600.72;;;8.74;65.42
41334;BME280;27078;46.428;6.256;2023-03-16T09:32:43;96602.50;;;8.73;63.41
41334;BME280;27078;46.428;6.256;2023-03-16T09:35:08;96599.59;;;8.99;64.99
41334;BME280;27078;46.428;6.256;2023-03-16T09:37:34;96595.75;;;9.03;62.47
41334;BME280;27078;46.428;6.256;2023-03-16T09:40:00;96583.47;;;9.25;62.54
41334;BME280;27078;46.428;6.256;2023-03-16T09:42:33;96587.75;;;9.37;65.53
41334;BME280;27078;46.428;6.256;2023-03-16T09:45:17;96583.25;;;9.28;62.50
41334;BME280;27078;46.428;6.256;2023-03-16T09:47:46;96584.66;;;9.00;62.06
41334;BME280;27078;46.428;6.256;2023-03-16T09:50:30;96584.50;;;9.01;63.20
41334;BME280;27078;46.428;6.256;2023-03-16T09:55:35;96567.88;;;9.01;63.78
41334;BME280;27078;46.428;6.256;2023-03-16T09:58:04;96571.50;;;8.88;64.66
41334;BME280;27078;46.428;6.256;2023-03-16T10:00:58;96556.22;;;9.14;63.46
41334;BME280;27078;46.428;6.256;2023-03-16T10:03:29;96561.06;;;9.30;64.04
41334;BME280;27078;46.428;6.256;2023-03-16T10:06:00;96563.16;;;9.48;65.26
41334;BME280;27078;46.428;6.256;2023-03-16T10:08:35;96565.25;;;9.65;63.66
41334;BME280;27078;46.428;6.256;2023-03-16T10:11:22;96570.03;;;9.39;60.14
41334;BME280;27078;46.428;6.256;2023-03-16T10:14:15;96561.38;;;9.48;61.49
41334;BME280;27078;46.428;6.256;2023-03-16T10:19:31;96553.28;;;9.82;63.90
41334;BME280;27078;46.428;6.256;2023-03-16T10:21:59;96555.34;;;9.99;63.41
41334;BME280;27078;46.428;6.256;2023-03-16T10:24:38;96545.22;;;10.05;61.85
41334;BME280;27078;46.428;6.256;2023-03-16T10:27:13;96550.06;;;9.99;61.10
41334;BME280;27078;46.428;6.256;2023-03-16T10:29:41;96554.69;;;9.86;60.57
41334;BME280;27078;46.428;6.256;2023-03-16T10:32:13;96546.78;;;9.44;57.65
41334;BME280;27078;46.428;6.256;2023-03-16T10:34:39;96550.56;;;9.51;57.87
41334;BME280;27078;46.428;6.256;2023-03-16T10:37:04;96548.97;;;9.81;61.50
41334;BME280;27078;46.428;6.256;2023-03-16T10:39:36;96555.16;;;9.91;60.28
41334;BME280;27078;46.428;6.256;2023-03-16T10:42:13;96546.38;;;10.12;58.57
41334;BME280;27078;46.428;6.256;2023-03-16T10:44:40;96556.84;;;10.23;59.30
41334;BME280;27078;46.428;6.256;2023-03-16T10:47:06;96540.19;;;10.23;58.55
41334;BME280;27078;46.428;6.256;2023-03-16T10:52:06;96550.88;;;10.21;58.12
41334;BME280;27078;46.428;6.256;2023-03-16T10:54:34;96553.72;;;10.08;57.10
41334;BME280;27078;46.428;6.256;2023-03-16T10:57:31;96552.69;;;10.21;60.26
41334;BME280;27078;46.428;6.256;2023-03-16T11:00:12;96549.84;;;10.33;60.11
41334;BME280;27078;46.428;6.256;2023-03-16T11:02:39;96550.34;;;10.27;61.31
41334;BME280;27078;46.428;6.256;2023-03-16T11:05:29;96550.19;;;10.50;61.94
41334;BME280;27078;46.428;6.256;2023-03-16T11:07:59;96553.00;;;10.58;62.57
41334;BME280;27078;46.428;6.256;2023-03-16T11:10:32;96555.13;;;10.74;60.94
41334;BME280;27078;46.428;6.256;2023-03-16T11:13:04;96559.97;;;10.69;57.42
41334;BME280;27078;46.428;6.256;2023-03-16T11:18:48;96539.16;;;10.75;57.70
41334;BME280;27078;46.428;6.256;2023-03-16T11:21:20;96541.94;;;10.84;58.06
41334;BME280;27078;46.428;6.256;2023-03-16T11:23:53;96533.38;;;11.01;59.60
41334;BME280;27078;46.428;6.256;2023-03-16T11:26:23;96541.28;;;10.91;58.48
41334;BME280;27078;46.428;6.256;2023-03-16T11:32:17;96540.06;;;11.25;59.27
41334;BME280;27078;46.428;6.256;2023-03-16T11:34:45;96530.03;;;11.18;55.90
41334;BME280;27078;46.428;6.256;2023-03-16T11:45:39;96548.41;;;11.30;55.05
41334;BME280;27078;46.428;6.256;2023-03-16T11:51:03;96549.44;;;10.78;51.93
41334;BME280;27078;46.428;6.256;2023-03-16T11:53:39;96542.25;;;10.90;53.90
41334;BME280;27078;46.428;6.256;2023-03-16T11:59:20;96534.78;;;11.05;56.00
41334;BME280;27078;46.428;6.256;2023-03-16T12:10:22;96515.94;;;11.76;53.77
41334;BME280;27078;46.428;6.256;2023-03-16T12:13:23;96509.66;;;11.87;50.03
41334;BME280;27078;46.428;6.256;2023-03-16T12:18:42;96507.88;;;12.35;52.61
41334;BME280;27078;46.428;6.256;2023-03-16T12:21:36;96507.06;;;12.34;50.64
41334;BME280;27078;46.428;6.256;2023-03-16T12:24:09;96506.84;;;12.55;51.20
41334;BME280;27078;46.428;6.256;2023-03-16T12:26:41;96505.28;;;12.53;48.18
41334;BME280;27078;46.428;6.256;2023-03-16T12:29:22;96497.84;;;12.66;50.61
41334;BME280;27078;46.428;6.256;2023-03-16T12:32:00;96492.44;;;12.58;51.81
41334;BME280;27078;46.428;6.256;2023-03-16T12:34:40;96494.88;;;12.69;50.56
41334;BME280;27078;46.428;6.256;2023-03-16T12:37:34;96487.34;;;12.47;48.33
41334;BME280;27078;46.428;6.256;2023-03-16T12:40:17;96485.28;;;12.40;50.33
41334;BME280;27078;46.428;6.256;2023-03-16T12:45:42;96484.03;;;12.45;51.17
41334;BME280;27078;46.428;6.256;2023-03-16T12:50:55;96472.63;;;12.34;48.98
41334;BME280;27078;46.428;6.256;2023-03-16T12:56:12;96463.09;;;12.14;50.20
41334;BME280;27078;46.428;6.256;2023-03-16T12:58:42;96454.00;;;12.26;50.32
41334;BME280;27078;46.428;6.256;2023-03-16T13:01:10;96456.03;;;11.85;48.61
41334;BME280;27078;46.428;6.256;2023-03-16T13:03:37;96454.44;;;12.21;50.91
41334;BME280;27078;46.428;6.256;2023-03-16T13:06:03;96454.78;;;12.36;49.58
41334;BME280;27078;46.428;6.256;2023-03-16T13:08:40;96450.19;;;12.38;54.02
41334;BME280;27078;46.428;6.256;2023-03-16T13:11:10;96439.25;;;12.69;54.04
41334;BME280;27078;46.428;6.256;2023-03-16T13:16:27;96432.06;;;12.79;51.45
41334;BME280;27078;46.428;6.256;2023-03-16T13:18:54;96428.47;;;12.53;50.34
41334;BME280;27078;46.428;6.256;2023-03-16T13:26:52;96417.09;;;12.70;51.31
41334;BME280;27078;46.428;6.256;2023-03-16T13:29:29;96411.31;;;12.75;52.08
41334;BME280;27078;46.428;6.256;2023-03-16T13:32:01;96408.59;;;12.67;48.58
41334;BME280;27078;46.428;6.256;2023-03-16T13:34:32;96404.28;;;12.83;51.76
41334;BME280;27078;46.428;6.256;2023-03-16T13:37:01;96397.31;;;13.00;52.55
41334;BME280;27078;46.428;6.256;2023-03-16T13:39:30;96401.78;;;13.00;50.21
41334;BME280;27078;46.428;6.256;2023-03-16T13:42:01;96401.09;;;13.16;51.88
41334;BME280;27078;46.428;6.256;2023-03-16T13:44:31;96396.59;;;13.16;52.98
41334;BME280;27078;46.428;6.256;2023-03-16T13:47:07;96394.19;;;13.41;52.44
41334;BME280;27078;46.428;6.256;2023-03-16T13:49:41;96399.84;;;13.46;49.62
41334;BME280;27078;46.428;6.256;2023-03-16T13:52:13;96398.72;;;13.49;52.72
41334;BME280;27078;46.428;6.256;2023-03-16T13:54:41;96395.31;;;13.38;52.07
41334;BME280;27078;46.428;6.256;2023-03-16T13:57:10;96401.78;;;13.36;51.37
41334;BME280;27078;46.428;6.256;2023-03-16T13:59:37;96400.50;;;13.48;52.03
41334;BME280;27078;46.428;6.256;2023-03-16T14:02:02;96398.81;;;13.21;51.59
41334;BME280;27078;46.428;6.256;2023-03-16T14:04:31;96402.47;;;13.02;52.01
41334;BME280;27078;46.428;6.256;2023-03-16T14:06:58;96399.75;;;12.94;50.65
41334;BME280;27078;46.428;6.256;2023-03-16T14:09:32;96404.81;;;12.69;56.18